createdAt,value
2022-09-11T00:01:15.050Z,16.90
2022-09-11T00:03:44.012Z,16.80
2022-09-11T00:06:28.530Z,16.80
2022-09-11T00:09:00.927Z,16.70
2022-09-11T00:11:31.763Z,16.70
2022-09-11T00:13:59.228Z,16.70
2022-09-11T00:16:31.041Z,16.60
2022-09-11T00:19:00.506Z,16.60
2022-09-11T00:21:28.161Z,16.50
2022-09-11T00:23:55.237Z,16.50
2022-09-11T00:26:22.779Z,16.50
2022-09-11T00:28:50.731Z,16.50
2022-09-11T00:31:20.480Z,16.40
2022-09-11T00:33:47.836Z,16.50
2022-09-11T00:36:18.302Z,16.40
2022-09-11T00:38:46.445Z,16.40
2022-09-11T00:41:18.020Z,16.30
2022-09-11T00:43:57.125Z,16.30
2022-09-11T00:46:55.536Z,16.20
2022-09-11T00:49:40.088Z,16.20
2022-09-11T00:52:18.116Z,16.10
2022-09-11T00:54:50.582Z,16.10
2022-09-11T00:57:21.570Z,16.10
2022-09-11T00:59:50.787Z,16.10
2022-09-11T01:02:25.410Z,16.10
2022-09-11T01:04:55.320Z,16.10
2022-09-11T01:07:24.463Z,16.10
2022-09-11T01:09:51.828Z,16.10
2022-09-11T01:12:27.592Z,16.10
2022-09-11T01:15:05.841Z,16.10
2022-09-11T01:18:09.660Z,16.20
2022-09-11T01:20:48.636Z,16.20
2022-09-11T01:23:24.379Z,16.20
2022-09-11T01:26:16.413Z,16.10
2022-09-11T01:29:07.552Z,16.10
2022-09-11T01:31:56.617Z,16.10
2022-09-11T01:34:37.267Z,16.20
2022-09-11T01:37:11.289Z,16.30
2022-09-11T01:39:45.199Z,16.30
2022-09-11T01:42:20.244Z,16.40
2022-09-11T01:44:57.763Z,16.50
2022-09-11T01:47:26.204Z,16.50
2022-09-11T01:50:06.903Z,16.60
2022-09-11T01:52:42.044Z,16.70
2022-09-11T01:55:26.189Z,16.70
2022-09-11T01:58:00.524Z,16.70
2022-09-11T02:00:27.638Z,16.70
2022-09-11T02:03:17.573Z,16.70
2022-09-11T02:06:04.719Z,16.70
2022-09-11T02:08:54.634Z,16.80
2022-09-11T02:11:22.641Z,16.80
2022-09-11T02:13:50.061Z,16.80
2022-09-11T02:16:46.369Z,16.90
2022-09-11T02:19:18.764Z,16.90
2022-09-11T02:21:48.354Z,16.90
2022-09-11T02:24:16.455Z,16.80
2022-09-11T02:26:48.196Z,16.80
2022-09-11T02:29:16.066Z,16.90
2022-09-11T02:31:43.823Z,16.80
2022-09-11T02:34:13.337Z,16.80
2022-09-11T02:36:49.308Z,16.80
2022-09-11T02:39:34.354Z,16.80
2022-09-11T02:42:25.931Z,16.80
2022-09-11T02:45:05.175Z,16.80
2022-09-11T02:47:43.956Z,16.80
2022-09-11T02:50:40.733Z,16.80
2022-09-11T02:53:39.992Z,16.70
2022-09-11T02:56:16.528Z,16.60
2022-09-11T02:58:55.676Z,16.70
2022-09-11T03:01:23.912Z,16.60
2022-09-11T03:03:51.181Z,16.50
2022-09-11T03:06:28.238Z,16.50
2022-09-11T03:08:55.723Z,16.40
2022-09-11T03:11:22.647Z,16.40
2022-09-11T03:13:49.533Z,16.40
2022-09-11T03:16:16.541Z,16.30
2022-09-11T03:18:43.562Z,16.30
2022-09-11T03:21:11.444Z,16.30
2022-09-11T03:23:38.547Z,16.30
2022-09-11T03:26:05.592Z,16.30
2022-09-11T03:28:32.574Z,16.40
2022-09-11T03:30:59.648Z,16.40
2022-09-11T03:33:26.705Z,16.50
2022-09-11T03:35:54.219Z,16.60
2022-09-11T03:38:21.154Z,16.60
2022-09-11T03:40:48.056Z,16.70
2022-09-11T03:43:16.823Z,16.70
2022-09-11T03:45:44.927Z,16.80
2022-09-11T03:48:12.025Z,16.90
2022-09-11T03:50:38.942Z,16.90
2022-09-11T03:53:05.808Z,16.80
2022-09-11T03:55:32.818Z,16.90
2022-09-11T03:58:00.130Z,16.90
2022-09-11T04:00:27.206Z,16.90
2022-09-11T04:02:55.726Z,16.90
2022-09-11T04:05:26.280Z,17.00
2022-09-11T04:07:55.236Z,16.90
2022-09-11T04:10:22.162Z,16.90
2022-09-11T04:12:49.261Z,16.90
2022-09-11T04:15:16.445Z,16.90
2022-09-11T04:17:43.404Z,16.90
2022-09-11T04:20:10.971Z,16.90
2022-09-11T04:22:41.034Z,16.90
2022-09-11T04:25:08.669Z,16.90
2022-09-11T04:27:35.559Z,16.90
2022-09-11T04:30:02.661Z,16.80
2022-09-11T04:32:29.946Z,16.80
2022-09-11T04:34:56.825Z,16.80
2022-09-11T04:37:23.742Z,16.90
2022-09-11T04:39:50.812Z,16.80
2022-09-11T04:42:17.728Z,16.80
2022-09-11T04:44:44.626Z,16.70
2022-09-11T04:47:11.528Z,16.70
2022-09-11T04:49:38.491Z,16.70
2022-09-11T04:52:07.344Z,16.80
2022-09-11T04:54:34.276Z,17.00
2022-09-11T04:57:02.023Z,17.10
2022-09-11T04:59:29.246Z,17.30
2022-09-11T05:01:56.599Z,17.50
2022-09-11T05:04:26.243Z,17.60
2022-09-11T05:06:53.562Z,17.70
2022-09-11T05:09:20.627Z,17.90
2022-09-11T05:11:48.214Z,18.00
2022-09-11T05:14:15.374Z,18.10
2022-09-11T05:16:43.878Z,18.20
2022-09-11T05:19:11.016Z,18.20
2022-09-11T05:21:38.052Z,18.20
2022-09-11T05:24:05.167Z,18.20
2022-09-11T05:26:34.824Z,18.20
2022-09-11T05:29:04.942Z,18.10
2022-09-11T05:31:34.667Z,18.10
2022-09-11T05:34:02.062Z,18.20
2022-09-11T05:36:31.190Z,18.20
2022-09-11T05:38:59.334Z,18.20
2022-09-11T05:41:26.481Z,18.30
2022-09-11T05:43:53.533Z,18.50
2022-09-11T05:46:21.304Z,18.80
2022-09-11T05:48:48.555Z,19.10
2022-09-11T05:51:21.671Z,19.50
2022-09-11T05:53:52.772Z,19.70
2022-09-11T05:56:25.312Z,19.70
2022-09-11T05:58:52.129Z,19.70
2022-09-11T06:01:21.507Z,19.60
2022-09-11T06:03:50.005Z,19.50
2022-09-11T06:06:19.198Z,19.40
2022-09-11T06:08:47.456Z,19.30
2022-09-11T06:11:17.011Z,19.30
2022-09-11T06:13:49.441Z,19.20
2022-09-11T06:16:24.104Z,19.30
2022-09-11T06:18:52.811Z,19.40
2022-09-11T06:21:22.792Z,19.30
2022-09-11T06:23:51.188Z,19.50
2022-09-11T06:26:24.159Z,19.50
2022-09-11T06:28:53.091Z,19.60
2022-09-11T06:31:22.947Z,19.60
2022-09-11T06:33:51.598Z,19.20
2022-09-11T06:36:21.107Z,18.90
2022-09-11T06:38:54.510Z,18.90
2022-09-11T06:41:21.812Z,18.90
2022-09-11T06:43:49.624Z,19.00
2022-09-11T06:46:19.197Z,19.10
2022-09-11T06:48:48.240Z,19.10
2022-09-11T06:51:17.628Z,19.00
2022-09-11T06:53:45.365Z,18.80
2022-09-11T06:56:14.411Z,18.70
2022-09-11T06:58:41.440Z,18.70
2022-09-11T07:01:14.678Z,18.70
2022-09-11T07:03:50.197Z,18.70
2022-09-11T07:06:19.094Z,18.60
2022-09-11T07:08:52.801Z,18.60
2022-09-11T07:11:20.600Z,18.70
2022-09-11T07:13:47.822Z,18.80
2022-09-11T07:16:15.291Z,18.80
2022-09-11T07:18:46.828Z,18.80
2022-09-11T07:21:18.210Z,18.80
2022-09-11T07:23:48.998Z,19.00
2022-09-11T07:26:17.365Z,19.10
2022-09-11T07:28:44.908Z,19.30
2022-09-11T07:31:20.631Z,19.40
2022-09-11T07:33:49.617Z,19.50
2022-09-11T07:36:25.234Z,19.40
2022-09-11T07:38:52.912Z,19.80
2022-09-11T07:41:21.998Z,20.00
2022-09-11T07:43:53.966Z,20.30
2022-09-11T07:46:21.554Z,20.30
2022-09-11T07:48:48.591Z,20.50
2022-09-11T07:51:19.480Z,20.30
2022-09-11T07:53:57.997Z,20.40
2022-09-11T07:56:26.313Z,20.30
2022-09-11T07:58:55.103Z,20.30
2022-09-11T08:01:30.958Z,20.30
2022-09-11T08:04:10.355Z,20.40
2022-09-11T08:06:38.788Z,20.50
2022-09-11T08:09:08.426Z,20.40
2022-09-11T08:11:40.474Z,20.50
2022-09-11T08:14:07.662Z,20.50
2022-09-11T08:16:37.968Z,20.50
2022-09-11T08:19:05.716Z,20.40
2022-09-11T08:21:32.958Z,20.30
2022-09-11T08:23:59.871Z,20.20
2022-09-11T08:26:31.227Z,20.20
2022-09-11T08:29:00.183Z,20.20
2022-09-11T08:31:28.383Z,20.20
2022-09-11T08:33:56.633Z,20.20
2022-09-11T08:36:24.438Z,20.20
2022-09-11T08:38:52.788Z,20.30
2022-09-11T08:41:28.641Z,20.30
2022-09-11T08:44:01.910Z,20.40
2022-09-11T08:46:38.171Z,20.50
2022-09-11T08:49:28.038Z,20.40
2022-09-11T08:52:00.179Z,20.20
2022-09-11T08:54:38.305Z,20.20
2022-09-11T08:57:30.943Z,20.20
2022-09-11T09:00:21.287Z,20.10
2022-09-11T09:03:01.380Z,20.10
2022-09-11T09:05:35.193Z,20.10
2022-09-11T09:08:23.420Z,20.10
2022-09-11T09:11:04.811Z,19.70
2022-09-11T09:13:57.252Z,19.70
2022-09-11T09:16:50.123Z,19.70
2022-09-11T09:19:20.802Z,19.80
2022-09-11T09:21:59.357Z,19.80
2022-09-11T09:24:29.827Z,19.80
2022-09-11T09:26:58.324Z,19.80
2022-09-11T09:29:31.446Z,19.70
2022-09-11T09:32:04.681Z,19.80
2022-09-11T09:34:37.521Z,20.00
2022-09-11T09:37:14.660Z,20.00
2022-09-11T09:39:41.864Z,20.20
2022-09-11T09:42:32.923Z,20.00
2022-09-11T09:45:14.804Z,19.50
2022-09-11T09:47:46.303Z,19.40
2022-09-11T09:50:34.970Z,19.50
2022-09-11T09:53:41.747Z,19.40
2022-09-11T09:56:16.421Z,19.00
2022-09-11T09:58:56.451Z,18.80
2022-09-11T10:01:50.254Z,18.60
2022-09-11T10:04:27.136Z,18.40
2022-09-11T10:07:05.900Z,18.40
2022-09-11T10:09:34.161Z,18.50
2022-09-11T10:12:06.164Z,18.70
2022-09-11T10:14:56.993Z,19.00
2022-09-11T10:17:31.299Z,19.20
2022-09-11T10:20:19.372Z,19.70
2022-09-11T10:22:46.856Z,20.10
2022-09-11T10:25:20.634Z,20.50
2022-09-11T10:28:03.560Z,20.80
2022-09-11T10:30:39.240Z,20.70
2022-09-11T10:33:26.325Z,20.80
2022-09-11T10:35:58.463Z,20.90
2022-09-11T10:38:41.470Z,21.10
2022-09-11T10:41:14.714Z,21.10
2022-09-11T10:43:47.770Z,21.00
2022-09-11T10:46:40.111Z,20.90
2022-09-11T10:49:17.614Z,20.70
2022-09-11T10:52:00.487Z,20.60
2022-09-11T10:54:48.231Z,20.50
2022-09-11T10:57:18.417Z,20.30
2022-09-11T11:00:20.533Z,20.10
2022-09-11T11:02:54.623Z,20.10
2022-09-11T11:05:27.194Z,20.00
2022-09-11T11:07:54.011Z,20.10
2022-09-11T11:10:48.990Z,20.30
2022-09-11T11:13:53.029Z,20.50
2022-09-11T11:16:20.510Z,20.90
2022-09-11T11:19:07.238Z,21.10
2022-09-11T11:21:52.862Z,21.40
2022-09-11T11:24:59.360Z,22.10
2022-09-11T11:27:27.507Z,22.40
2022-09-11T11:30:20.670Z,22.70
2022-09-11T11:32:51.001Z,23.00
2022-09-11T11:35:34.499Z,22.90
2022-09-11T11:38:10.507Z,22.60
2022-09-11T11:40:53.433Z,22.70
2022-09-11T11:43:27.516Z,22.20
2022-09-11T11:46:02.458Z,22.10
2022-09-11T11:48:52.922Z,21.80
2022-09-11T11:51:25.877Z,21.70
2022-09-11T11:54:14.370Z,21.90
2022-09-11T11:56:49.615Z,21.60
2022-09-11T11:59:32.222Z,21.20
2022-09-11T12:02:02.616Z,21.30
2022-09-11T12:04:48.919Z,21.60
2022-09-11T12:07:33.291Z,22.00
2022-09-11T12:10:02.509Z,22.30
2022-09-11T12:12:44.289Z,22.40
2022-09-11T12:15:25.521Z,22.20
2022-09-11T12:18:22.164Z,22.10
2022-09-11T12:20:49.436Z,22.20
2022-09-11T12:23:32.664Z,22.30
2022-09-11T12:26:08.735Z,22.30
2022-09-11T12:28:36.129Z,22.40
2022-09-11T12:31:05.138Z,22.60
2022-09-11T12:33:41.379Z,22.60
2022-09-11T12:36:13.326Z,22.80
2022-09-11T12:38:45.600Z,22.90
2022-09-11T12:41:17.442Z,23.10
2022-09-11T12:43:44.345Z,23.10
2022-09-11T12:46:37.312Z,22.80
2022-09-11T12:49:28.287Z,22.90
2022-09-11T12:51:59.731Z,23.20
2022-09-11T12:54:26.806Z,23.40
2022-09-11T12:57:05.507Z,23.40
2022-09-11T12:59:38.747Z,23.60
2022-09-11T13:02:23.703Z,23.80
2022-09-11T13:04:52.272Z,23.50
2022-09-11T13:07:43.533Z,23.40
2022-09-11T13:10:27.611Z,23.30
2022-09-11T13:12:56.249Z,23.20
2022-09-11T13:15:38.240Z,23.00
2022-09-11T13:18:26.379Z,22.70
2022-09-11T13:20:58.939Z,22.60
2022-09-11T13:23:27.062Z,22.50
2022-09-11T13:25:58.270Z,22.60
2022-09-11T13:28:27.617Z,22.70
2022-09-11T13:31:02.957Z,22.90
2022-09-11T13:33:32.222Z,22.90
2022-09-11T13:36:06.873Z,22.90
2022-09-11T13:38:36.660Z,22.80
2022-09-11T13:41:13.275Z,22.60
2022-09-11T13:43:48.602Z,22.50
2022-09-11T13:46:16.066Z,22.70
2022-09-11T13:48:44.973Z,22.80
2022-09-11T13:51:14.629Z,22.80
2022-09-11T13:53:45.617Z,22.70
2022-09-11T13:56:45.292Z,22.70
2022-09-11T13:59:36.619Z,22.70
2022-09-11T14:02:06.957Z,22.80
2022-09-11T14:04:41.792Z,22.90
2022-09-11T14:07:26.114Z,23.00
2022-09-11T14:10:05.846Z,23.10
2022-09-11T14:12:34.890Z,23.00
2022-09-11T14:15:11.251Z,23.10
2022-09-11T14:17:42.223Z,23.00
2022-09-11T14:20:17.277Z,23.00
2022-09-11T14:22:46.235Z,23.00
2022-09-11T14:25:24.176Z,23.10
2022-09-11T14:27:51.640Z,23.10
2022-09-11T14:30:38.173Z,23.10
2022-09-11T14:33:25.271Z,23.10
2022-09-11T14:35:58.011Z,23.00
2022-09-11T14:38:26.647Z,23.00
2022-09-11T14:41:06.745Z,22.80
2022-09-11T14:43:37.295Z,22.90
2022-09-11T14:46:04.622Z,22.90
2022-09-11T14:48:34.804Z,22.80
2022-09-11T14:51:09.848Z,22.70
2022-09-11T14:53:38.413Z,22.70
2022-09-11T14:56:05.731Z,22.70
2022-09-11T14:58:32.848Z,22.70
2022-09-11T15:00:59.790Z,22.70
2022-09-11T15:03:26.788Z,22.70
2022-09-11T15:05:57.055Z,22.50
2022-09-11T15:08:25.459Z,22.40
2022-09-11T15:10:53.824Z,22.30
2022-09-11T15:13:21.645Z,22.40
2022-09-11T15:15:48.614Z,22.40
2022-09-11T15:18:15.623Z,22.40
2022-09-11T15:20:42.493Z,22.50
2022-09-11T15:23:09.446Z,22.50
2022-09-11T15:25:36.295Z,22.40
2022-09-11T15:28:03.301Z,22.50
2022-09-11T15:30:30.159Z,22.50
2022-09-11T15:32:57.069Z,22.50
2022-09-11T15:35:24.207Z,22.40
2022-09-11T15:37:51.183Z,22.40
2022-09-11T15:40:19.162Z,22.30
2022-09-11T15:42:48.946Z,22.20
2022-09-11T15:45:17.474Z,22.10
2022-09-11T15:47:44.941Z,22.10
2022-09-11T15:50:12.693Z,22.10
2022-09-11T15:52:41.171Z,22.00
2022-09-11T15:55:10.317Z,22.00
2022-09-11T15:57:38.678Z,22.00
2022-09-11T16:00:06.757Z,21.90
2022-09-11T16:02:33.629Z,21.90
2022-09-11T16:05:00.820Z,21.80
2022-09-11T16:07:27.888Z,21.80
2022-09-11T16:09:56.349Z,21.80
2022-09-11T16:12:23.958Z,21.70
2022-09-11T16:14:51.139Z,21.70
2022-09-11T16:17:20.696Z,21.70
2022-09-11T16:19:47.843Z,21.60
2022-09-11T16:22:14.907Z,21.50
2022-09-11T16:24:42.614Z,21.40
2022-09-11T16:27:10.736Z,21.40
2022-09-11T16:30:15.615Z,21.30
2022-09-11T16:32:29.257Z,21.20
2022-09-11T16:34:57.872Z,21.10
2022-09-11T16:37:26.042Z,21.00
2022-09-11T16:39:53.524Z,20.90
2022-09-11T16:42:21.356Z,20.80
2022-09-11T16:44:51.911Z,20.70
2022-09-11T16:47:20.366Z,20.60
2022-09-11T16:52:34.975Z,20.30
2022-09-11T16:55:01.963Z,20.20
2022-09-11T16:57:28.954Z,20.00
2022-09-11T16:59:56.062Z,19.90
2022-09-11T17:02:22.961Z,19.70
2022-09-11T17:04:49.970Z,19.60
2022-09-11T17:07:16.900Z,19.50
2022-09-11T17:09:45.995Z,19.40
2022-09-11T17:12:15.248Z,19.30
2022-09-11T17:14:42.259Z,19.10
2022-09-11T17:17:10.040Z,19.00
2022-09-11T17:19:37.046Z,18.90
2022-09-11T17:22:04.243Z,18.80
2022-09-11T17:24:31.923Z,18.70
2022-09-11T17:26:59.151Z,18.70
2022-09-11T17:29:26.115Z,18.60
2022-09-11T17:32:10.607Z,18.50
2022-09-11T17:34:41.704Z,18.40
2022-09-11T17:37:10.097Z,18.40
2022-09-11T17:39:37.180Z,18.30
2022-09-11T17:42:09.811Z,18.30
2022-09-11T17:44:41.593Z,18.20
2022-09-11T17:47:09.069Z,18.10
2022-09-11T17:49:36.082Z,18.10
2022-09-11T17:52:03.500Z,18.00
2022-09-11T17:54:30.439Z,17.90
2022-09-11T17:56:58.643Z,17.80
2022-09-11T17:59:25.663Z,17.80
2022-09-11T18:01:52.566Z,17.80
2022-09-11T18:04:19.590Z,17.70
2022-09-11T18:06:46.783Z,17.70
2022-09-11T18:09:19.836Z,17.70
2022-09-11T18:11:49.893Z,17.60
2022-09-11T18:14:20.697Z,17.60
2022-09-11T18:16:48.069Z,17.60
2022-09-11T18:19:16.838Z,17.60
2022-09-11T18:21:48.032Z,17.60
2022-09-11T18:24:20.141Z,17.60
2022-09-11T18:26:49.934Z,17.60
2022-09-11T18:29:20.127Z,17.60
2022-09-11T18:31:52.019Z,17.60
2022-09-11T18:34:24.120Z,17.60
2022-09-11T18:36:51.356Z,17.50
2022-09-11T18:39:19.458Z,17.50
2022-09-11T18:41:47.970Z,17.60
2022-09-11T18:44:19.777Z,17.60
2022-09-11T18:46:48.474Z,17.60
2022-09-11T18:49:16.648Z,17.60
2022-09-11T18:51:44.041Z,17.60
2022-09-11T18:54:16.284Z,17.60
2022-09-11T18:56:44.581Z,17.70
2022-09-11T18:59:12.355Z,17.70
2022-09-11T19:01:40.183Z,17.70
2022-09-11T19:04:10.335Z,17.80
2022-09-11T19:06:40.781Z,17.80
2022-09-11T19:09:16.664Z,17.90
2022-09-11T19:11:43.728Z,18.00
2022-09-11T19:14:12.476Z,17.90
2022-09-11T19:16:40.117Z,18.00
2022-09-11T19:19:08.120Z,18.00
2022-09-11T19:21:35.839Z,17.90
2022-09-11T19:24:02.997Z,18.00
2022-09-11T19:26:42.382Z,17.90
2022-09-11T19:29:10.118Z,17.90
2022-09-11T19:31:39.432Z,18.00
2022-09-11T19:34:07.970Z,18.00
2022-09-11T19:36:36.199Z,17.90
2022-09-11T19:39:04.134Z,17.90
2022-09-11T19:41:34.160Z,17.90
2022-09-11T19:44:02.423Z,17.90
2022-09-11T19:46:31.750Z,17.90
2022-09-11T19:49:03.211Z,17.90
2022-09-11T19:51:45.560Z,17.90
2022-09-11T19:54:17.323Z,17.90
2022-09-11T19:56:46.643Z,18.10
2022-09-11T19:59:15.355Z,18.10
2022-09-11T20:01:43.819Z,18.00
2022-09-11T20:04:12.712Z,18.00
2022-09-11T20:06:40.153Z,18.00
2022-09-11T20:11:55.300Z,17.80
2022-09-11T20:14:22.196Z,17.80
2022-09-11T20:16:49.428Z,17.80
2022-09-11T20:19:17.398Z,17.70
2022-09-11T20:21:44.555Z,17.70
2022-09-11T20:24:11.530Z,17.70
2022-09-11T20:26:38.454Z,17.80
2022-09-11T20:29:07.876Z,17.70
2022-09-11T20:31:46.451Z,17.60
2022-09-11T20:34:15.751Z,17.60
2022-09-11T20:36:42.725Z,17.50
2022-09-11T20:39:14.435Z,17.50
2022-09-11T20:41:42.879Z,17.40
2022-09-11T20:44:09.984Z,17.40
2022-09-11T20:46:37.212Z,17.30
2022-09-11T20:49:05.273Z,17.30
2022-09-11T20:51:33.131Z,17.40
2022-09-11T20:54:00.774Z,17.30
2022-09-11T20:56:28.286Z,17.20
2022-09-11T20:58:55.832Z,17.20
2022-09-11T21:01:25.061Z,17.10
2022-09-11T21:03:54.775Z,17.10
2022-09-11T21:06:26.077Z,17.00
2022-09-11T21:08:58.973Z,17.00
2022-09-11T21:11:28.858Z,16.90
2022-09-11T21:14:06.190Z,16.90
2022-09-11T21:16:34.767Z,16.90
2022-09-11T21:19:02.539Z,16.90
2022-09-11T21:21:30.678Z,16.80
2022-09-11T21:24:04.052Z,16.80
2022-09-11T21:26:32.540Z,16.70
2022-09-11T21:29:02.123Z,16.60
2022-09-11T21:31:30.209Z,16.50
2022-09-11T21:33:57.871Z,16.50
2022-09-11T21:36:26.523Z,16.50
2022-09-11T21:38:53.984Z,16.40
2022-09-11T21:41:20.936Z,16.40
2022-09-11T21:43:48.312Z,16.30
2022-09-11T21:46:15.249Z,16.20
2022-09-11T21:48:42.547Z,16.20
2022-09-11T21:51:10.608Z,16.10
2022-09-11T21:53:38.975Z,16.10
2022-09-11T21:56:07.686Z,16.10
2022-09-11T21:58:34.621Z,16.00
2022-09-11T22:01:08.271Z,16.10
2022-09-11T22:03:35.624Z,16.10
2022-09-11T22:06:06.911Z,16.10
2022-09-11T22:08:35.402Z,16.10
2022-09-11T22:11:04.170Z,16.10
2022-09-11T22:13:32.111Z,16.00
2022-09-11T22:16:00.468Z,16.00
2022-09-11T22:18:27.384Z,16.10
2022-09-11T22:20:58.335Z,16.10
2022-09-11T22:23:25.443Z,16.10
2022-09-11T22:26:05.414Z,16.10
2022-09-11T22:28:32.417Z,16.10
2022-09-11T22:30:59.522Z,16.10
2022-09-11T22:33:26.716Z,16.10
2022-09-11T22:35:53.599Z,16.10
2022-09-11T22:38:20.474Z,16.10
2022-09-11T22:40:53.583Z,16.00
2022-09-11T22:43:20.733Z,15.90
2022-09-11T22:45:52.038Z,15.90
2022-09-11T22:48:19.190Z,15.90
2022-09-11T22:50:46.155Z,15.80
2022-09-11T22:53:13.182Z,15.80
2022-09-11T22:55:49.223Z,15.70
2022-09-11T22:58:16.668Z,15.60
2022-09-11T23:00:44.706Z,15.60
2022-09-11T23:03:12.449Z,15.50
2022-09-11T23:05:58.710Z,15.50
2022-09-11T23:08:31.791Z,15.50
2022-09-11T23:11:02.893Z,15.50
2022-09-11T23:13:31.831Z,15.50
2022-09-11T23:15:59.698Z,15.50
2022-09-11T23:18:27.880Z,15.40
2022-09-11T23:20:55.999Z,15.40
2022-09-11T23:23:24.656Z,15.30
2022-09-11T23:25:52.467Z,15.40
2022-09-11T23:28:19.552Z,15.30
2022-09-11T23:30:46.565Z,15.20
2022-09-11T23:33:13.469Z,15.10
2022-09-11T23:35:41.156Z,15.10
2022-09-11T23:38:08.225Z,15.10
2022-09-11T23:40:35.196Z,15.10
2022-09-11T23:43:02.171Z,15.10
2022-09-11T23:45:29.659Z,15.20
2022-09-11T23:47:56.607Z,15.20
2022-09-11T23:50:23.603Z,15.20
2022-09-11T23:52:50.495Z,15.20
2022-09-11T23:55:19.133Z,15.20
2022-09-11T23:57:47.937Z,15.10
